Time;durP1;ratioP1;P1;durP2;ratioP2;P2;SDS_P1;SDS_P2;PMS_P1;PMS_P2;Temp;Humidity;BMP_temperature;BMP_pressure;BME280_temperature;BME280_humidity;BME280_pressure;Samples;Min_cycle;Max_cycle;Signal;HPM_P1;HPM_P2
2022/06/20 00:00:06;;;;;;;9.35;5.15;;;23.80;99.00;;;;;;5054474;28;20189;-56
2022/06/20 00:02:32;;;;;;;15.10;6.03;;;23.80;99.10;;;;;;5055133;28;20180;-56
2022/06/20 00:05:01;;;;;;;10.68;5.68;;;23.70;99.50;;;;;;5054827;28;20177;-57
2022/06/20 00:07:26;;;;;;;12.95;5.22;;;23.60;99.70;;;;;;5054720;28;20190;-57
2022/06/20 00:09:52;;;;;;;14.50;5.90;;;23.50;99.90;;;;;;5054985;28;20173;-57
2022/06/20 00:12:21;;;;;;;12.82;5.45;;;23.40;99.90;;;;;;5054732;28;20184;-56
2022/06/20 00:14:48;;;;;;;11.85;5.53;;;23.40;99.90;;;;;;5054423;28;20182;-56
2022/06/20 00:17:14;;;;;;;9.98;4.82;;;23.40;99.90;;;;;;5054971;28;20177;-56
2022/06/20 00:19:42;;;;;;;13.20;5.28;;;23.40;99.90;;;;;;5054789;28;20233;-56
2022/06/20 00:22:09;;;;;;;10.68;5.40;;;23.30;99.90;;;;;;5054485;28;20181;-56
2022/06/20 00:24:34;;;;;;;11.20;5.00;;;23.30;99.90;;;;;;5054819;28;20595;-57
2022/06/20 00:27:00;;;;;;;12.20;5.28;;;23.20;99.90;;;;;;5054448;28;20174;-57
2022/06/20 00:29:28;;;;;;;12.88;5.47;;;23.20;99.90;;;;;;5054294;28;20188;-56
2022/06/20 00:31:53;;;;;;;11.48;5.43;;;23.10;99.90;;;;;;5054245;28;20605;-56
2022/06/20 00:34:19;;;;;;;9.07;5.20;;;23.10;99.90;;;;;;5054221;28;20217;-56
2022/06/20 00:36:44;;;;;;;10.98;4.95;;;22.90;99.90;;;;;;5054229;28;20186;-56
2022/06/20 00:39:11;;;;;;;12.70;5.32;;;22.90;99.90;;;;;;5054312;28;20177;-57
2022/06/20 00:41:36;;;;;;;13.60;5.63;;;22.90;99.90;;;;;;5053970;28;20575;-57
2022/06/20 00:44:02;;;;;;;10.30;5.00;;;22.90;99.90;;;;;;5053353;28;20181;-56
2022/06/20 00:46:51;;;;;;;11.95;5.38;;;22.90;99.90;;;;;;5054304;28;20616;-57
2022/06/20 00:49:22;;;;;;;11.15;6.20;;;22.90;99.90;;;;;;5034514;28;20189;-56
2022/06/20 00:52:10;;;;;;;10.15;5.43;;;22.90;99.90;;;;;;5041780;28;20197;-56
2022/06/20 00:54:48;;;;;;;7.18;5.03;;;22.90;99.90;;;;;;5053398;28;20190;-56
2022/06/20 00:57:22;;;;;;;13.40;5.38;;;22.80;99.90;;;;;;5053625;28;20260;-57
2022/06/20 00:59:58;;;;;;;8.32;5.63;;;22.80;99.90;;;;;;5053805;28;20185;-56
2022/06/20 01:02:27;;;;;;;11.88;4.95;;;22.80;99.90;;;;;;5053673;28;20173;-56
2022/06/20 01:05:01;;;;;;;11.35;5.65;;;22.80;99.90;;;;;;5053812;28;20183;-57
2022/06/20 01:07:51;;;;;;;12.60;5.07;;;22.80;99.90;;;;;;5053582;28;20182;-56
2022/06/20 01:10:19;;;;;;;15.57;5.00;;;22.80;99.90;;;;;;5053482;28;20188;-57
2022/06/20 01:13:01;;;;;;;7.60;5.00;;;22.80;99.90;;;;;;5053478;28;20205;-56
2022/06/20 01:15:36;;;;;;;9.52;5.20;;;22.80;99.90;;;;;;5053477;28;20193;-56
2022/06/20 01:18:03;;;;;;;12.50;5.20;;;22.70;99.90;;;;;;5053481;28;20535;-56
2022/06/20 01:20:32;;;;;;;10.95;4.95;;;22.70;99.90;;;;;;5053726;28;20629;-56
2022/06/20 01:23:04;;;;;;;9.63;5.43;;;22.70;99.90;;;;;;5053076;28;20196;-56
2022/06/20 01:26:03;;;;;;;9.88;5.18;;;22.60;99.90;;;;;;5053487;28;20648;-56
2022/06/20 01:28:36;;;;;;;12.35;5.13;;;22.60;99.90;;;;;;5053258;28;20186;-56
2022/06/20 01:31:02;;;;;;;13.52;5.03;;;22.60;99.90;;;;;;5052403;28;20173;-56
2022/06/20 01:33:28;;;;;;;17.52;5.28;;;22.50;99.90;;;;;;5053062;28;20308;-56
2022/06/20 01:38:42;;;;;;;11.55;5.43;;;22.50;99.90;;;;;;5053126;28;20192;-56
2022/06/20 01:43:55;;;;;;;13.27;5.80;;;22.70;99.90;;;;;;5052871;28;20269;-56
2022/06/20 01:46:25;;;;;;;9.52;5.43;;;22.70;99.90;;;;;;5053186;28;20173;-56
2022/06/20 01:48:54;;;;;;;13.43;5.28;;;22.70;99.90;;;;;;5052651;28;20633;-56
2022/06/20 01:51:26;;;;;;;14.93;5.93;;;22.60;99.90;;;;;;5053010;28;20173;-56
2022/06/20 01:53:54;;;;;;;11.23;4.93;;;22.50;99.90;;;;;;5052667;28;20239;-56
2022/06/20 01:56:22;;;;;;;11.90;6.28;;;22.40;99.90;;;;;;5052721;28;20208;-56
2022/06/20 01:58:58;;;;;;;12.40;5.32;;;22.40;99.90;;;;;;5052412;28;20220;-56
2022/06/20 02:01:26;;;;;;;13.25;5.80;;;22.30;99.90;;;;;;5052418;28;20185;-56
2022/06/20 02:03:51;;;;;;;10.38;5.07;;;22.40;99.90;;;;;;5052540;28;20198;-56
2022/06/20 02:06:19;;;;;;;7.47;4.85;;;22.40;99.90;;;;;;5052408;28;20177;-56
2022/06/20 02:08:50;;;;;;;7.15;4.75;;;22.40;99.90;;;;;;5051702;28;20181;-56
2022/06/20 02:11:26;;;;;;;12.95;5.45;;;22.40;99.90;;;;;;5052597;28;20208;-56
2022/06/20 02:13:58;;;;;;;9.05;5.05;;;22.40;99.90;;;;;;5052360;28;20209;-56
2022/06/20 02:16:28;;;;;;;10.98;5.57;;;22.30;99.90;;;;;;5051310;28;20287;-56
2022/06/20 02:19:00;;;;;;;12.52;5.20;;;22.20;99.90;;;;;;5051490;28;20664;-56
2022/06/20 02:21:30;;;;;;;14.10;5.63;;;22.20;99.90;;;;;;5052219;28;20285;-56
2022/06/20 02:24:02;;;;;;;9.27;5.03;;;22.20;99.90;;;;;;5052508;28;20622;-56
2022/06/20 02:26:29;;;;;;;13.05;5.85;;;22.20;99.90;;;;;;5052102;28;20260;-56
2022/06/20 02:29:03;;;;;;;11.05;5.88;;;22.20;99.90;;;;;;5052152;28;20242;-56
2022/06/20 02:31:29;;;;;;;9.98;5.22;;;22.10;99.90;;;;;;5052031;28;20238;-56
2022/06/20 02:33:55;;;;;;;12.40;5.80;;;22.00;99.90;;;;;;5052099;28;20221;-56
2022/06/20 02:36:22;;;;;;;10.80;5.57;;;21.90;99.90;;;;;;5051956;28;20178;-57
2022/06/20 02:38:48;;;;;;;11.73;5.10;;;21.80;99.90;;;;;;5052207;28;20220;-56
2022/06/20 02:41:19;;;;;;;8.48;5.93;;;21.70;99.90;;;;;;5052337;28;20182;-56
2022/06/20 02:44:05;;;;;;;14.52;5.97;;;21.70;99.90;;;;;;5051501;28;20662;-56
2022/06/20 02:46:31;;;;;;;10.35;5.47;;;21.70;99.90;;;;;;5051875;28;20238;-56
2022/06/20 02:48:59;;;;;;;12.73;6.20;;;21.60;99.90;;;;;;5052168;28;20260;-56
2022/06/20 02:51:30;;;;;;;17.27;5.45;;;21.50;99.90;;;;;;5050632;28;20201;-56
2022/06/20 02:53:58;;;;;;;10.80;4.63;;;21.40;99.90;;;;;;5051428;28;20217;-56
2022/06/20 02:56:27;;;;;;;12.30;5.65;;;21.40;99.90;;;;;;5051367;28;20647;-56
2022/06/20 02:59:05;;;;;;;10.70;4.32;;;21.30;99.90;;;;;;5051778;28;20204;-56
2022/06/20 03:01:45;;;;;;;12.98;5.00;;;21.20;99.90;;;;;;5051953;28;20182;-56
2022/06/20 03:04:11;;;;;;;11.27;4.10;;;21.20;99.90;;;;;;5051883;28;20191;-56
2022/06/20 03:06:42;;;;;;;9.13;3.58;;;21.10;99.90;;;;;;5051407;28;20268;-56
2022/06/20 03:09:12;;;;;;;8.48;3.90;;;21.20;99.90;;;;;;5051901;28;20169;-56
2022/06/20 03:11:39;;;;;;;8.70;3.50;;;21.10;99.90;;;;;;5051305;28;20660;-56
2022/06/20 03:14:07;;;;;;;8.65;3.47;;;21.10;99.90;;;;;;5051369;28;20532;-57
2022/06/20 03:16:33;;;;;;;9.95;3.28;;;21.00;99.90;;;;;;5051592;28;20271;-56
2022/06/20 03:19:01;;;;;;;8.90;3.60;;;21.00;99.90;;;;;;5052782;28;20251;-56
2022/06/20 03:21:36;;;;;;;7.72;3.17;;;21.00;99.90;;;;;;5055212;28;20636;-56
2022/06/20 03:24:03;;;;;;;6.28;2.95;;;21.00;99.90;;;;;;5055690;28;20743;-56
2022/06/20 03:26:29;;;;;;;5.40;2.63;;;21.00;99.90;;;;;;5055563;28;20173;-56
2022/06/20 03:28:55;;;;;;;4.53;2.72;;;21.00;99.90;;;;;;5055244;28;20181;-56
2022/06/20 03:31:21;;;;;;;6.57;2.80;;;21.00;99.90;;;;;;5055558;28;20181;-56
2022/06/20 03:33:47;;;;;;;5.43;3.05;;;21.00;99.90;;;;;;5054063;28;20240;-56
2022/06/20 03:36:26;;;;;;;8.40;3.20;;;21.00;99.90;;;;;;5055490;28;20507;-56
2022/06/20 03:38:52;;;;;;;7.30;2.75;;;21.00;99.90;;;;;;5054310;28;20628;-56
2022/06/20 03:41:21;;;;;;;7.18;2.70;;;21.00;99.90;;;;;;5055057;28;20190;-56
2022/06/20 03:43:52;;;;;;;6.18;2.85;;;21.10;99.90;;;;;;5055423;28;20180;-56
2022/06/20 03:46:23;;;;;;;10.70;2.85;;;21.20;99.90;;;;;;5054228;28;20178;-56
2022/06/20 03:49:04;;;;;;;10.95;2.50;;;21.20;99.90;;;;;;5055033;28;20260;-56
2022/06/20 03:51:40;;;;;;;4.57;2.53;;;21.20;99.90;;;;;;5055497;28;20173;-55
2022/06/20 03:54:35;;;;;;;6.78;3.05;;;21.30;99.90;;;;;;5054807;28;20810;-55
2022/06/20 03:57:07;;;;;;;5.55;2.95;;;21.30;99.90;;;;;;5049037;28;20190;-55
2022/06/20 03:59:56;;;;;;;8.18;2.50;;;21.30;99.90;;;;;;5055246;28;20185;-55
2022/06/20 04:02:29;;;;;;;5.80;2.35;;;21.40;99.90;;;;;;5055133;28;20731;-55
2022/06/20 04:05:10;;;;;;;6.55;2.47;;;21.40;99.90;;;;;;5055015;28;20216;-55
2022/06/20 04:07:46;;;;;;;6.88;2.50;;;21.40;99.90;;;;;;5055167;28;20185;-55
2022/06/20 04:13:23;;;;;;;7.00;2.95;;;21.30;99.90;;;;;;5054561;28;20279;-56
2022/06/20 04:16:03;;;;;;;5.45;2.65;;;21.40;99.90;;;;;;5054605;28;20173;-56
2022/06/20 04:18:45;;;;;;;7.38;2.67;;;21.50;99.90;;;;;;5054918;28;20177;-56
2022/06/20 04:21:19;;;;;;;6.05;2.50;;;21.50;99.90;;;;;;5054520;28;20201;-55
2022/06/20 04:23:57;;;;;;;5.68;2.58;;;21.40;99.80;;;;;;5054563;28;20185;-54
2022/06/20 04:26:38;;;;;;;6.95;2.28;;;21.30;99.90;;;;;;5054712;28;20273;-56
2022/06/20 04:29:13;;;;;;;7.93;2.38;;;21.10;99.90;;;;;;5053790;28;20191;-56
2022/06/20 04:31:52;;;;;;;6.22;3.20;;;20.90;99.90;;;;;;5054814;28;20185;-55
2022/06/20 04:34:42;;;;;;;6.00;2.78;;;20.80;99.90;;;;;;5053296;28;20296;-55
2022/06/20 04:37:25;;;;;;;8.43;2.90;;;20.70;99.90;;;;;;5053746;28;20697;-56
2022/06/20 04:40:27;;;;;;;4.57;2.65;;;20.70;99.90;;;;;;5054058;28;20538;-56
2022/06/20 04:43:11;;;;;;;7.50;3.08;;;20.80;99.90;;;;;;5054580;28;20578;-55
2022/06/20 04:45:44;;;;;;;6.38;2.45;;;20.80;99.90;;;;;;5054625;28;20183;-56
2022/06/20 04:48:15;;;;;;;8.27;2.92;;;20.80;99.90;;;;;;5054297;28;20181;-55
2022/06/20 04:50:45;;;;;;;4.75;3.13;;;20.80;99.90;;;;;;5054475;28;20545;-55
2022/06/20 04:53:16;;;;;;;6.68;2.75;;;20.80;99.90;;;;;;5054127;28;20205;-55
2022/06/20 04:55:47;;;;;;;13.43;3.50;;;20.80;99.90;;;;;;5054349;28;20663;-56
2022/06/20 04:58:17;;;;;;;6.38;2.58;;;20.90;99.90;;;;;;5054167;28;20186;-56
2022/06/20 05:00:44;;;;;;;5.90;3.17;;;20.90;99.90;;;;;;5054191;28;20236;-56
2022/06/20 05:03:22;;;;;;;8.25;2.92;;;21.00;99.90;;;;;;5053835;28;20272;-55
2022/06/20 05:05:52;;;;;;;10.82;3.38;;;20.90;99.90;;;;;;5053948;28;20585;-55
2022/06/20 05:08:25;;;;;;;8.82;3.22;;;20.90;99.90;;;;;;5054136;28;20181;-56
2022/06/20 05:11:12;;;;;;;7.45;3.53;;;20.90;99.90;;;;;;5054006;28;20181;-55
2022/06/20 05:13:48;;;;;;;9.82;2.97;;;20.80;99.90;;;;;;5053980;28;20223;-55
2022/06/20 05:16:27;;;;;;;6.40;2.90;;;20.80;99.90;;;;;;5053756;28;20259;-56
2022/06/20 05:18:57;;;;;;;3.42;2.72;;;20.80;99.90;;;;;;5053589;28;20220;-56
2022/06/20 05:21:37;;;;;;;7.93;3.58;;;20.80;99.90;;;;;;5053794;28;20645;-56
2022/06/20 05:24:14;;;;;;;4.35;2.50;;;20.80;99.90;;;;;;5053585;28;20189;-56
2022/06/20 05:26:44;;;;;;;6.78;3.15;;;21.00;99.90;;;;;;5053871;28;20227;-56
2022/06/20 05:29:27;;;;;;;8.25;3.10;;;21.20;99.90;;;;;;5053871;28;20219;-56
2022/06/20 05:31:55;;;;;;;9.32;3.30;;;21.40;99.90;;;;;;5053639;28;20189;-56
2022/06/20 05:34:33;;;;;;;6.57;3.15;;;21.50;99.90;;;;;;5053633;28;20217;-55
2022/06/20 05:37:10;;;;;;;8.45;3.03;;;21.50;99.90;;;;;;5053500;28;20173;-56
2022/06/20 05:39:53;;;;;;;7.57;2.95;;;21.60;99.90;;;;;;5053718;28;20181;-56
2022/06/20 05:42:19;;;;;;;9.68;3.40;;;21.80;99.90;;;;;;5052840;28;20213;-56
2022/06/20 05:44:45;;;;;;;11.35;5.80;;;21.90;99.90;;;;;;5053056;28;20589;-56
2022/06/20 05:47:19;;;;;;;6.68;3.17;;;21.90;99.90;;;;;;5053270;28;20184;-56
2022/06/20 05:50:01;;;;;;;9.57;3.58;;;21.90;99.90;;;;;;5053295;28;20187;-56
2022/06/20 05:52:30;;;;;;;5.72;2.80;;;21.80;99.90;;;;;;5053076;28;20617;-56
2022/06/20 05:55:09;;;;;;;10.80;3.58;;;21.90;99.90;;;;;;5053312;28;20200;-56
2022/06/20 05:57:36;;;;;;;5.05;3.05;;;22.00;99.90;;;;;;5053177;28;20227;-56
2022/06/20 06:00:16;;;;;;;10.60;3.45;;;22.20;99.90;;;;;;5052983;28;20181;-56
2022/06/20 06:02:47;;;;;;;10.82;3.42;;;22.20;99.90;;;;;;5053075;28;20260;-56
2022/06/20 06:05:33;;;;;;;12.38;4.18;;;22.30;99.90;;;;;;5052911;28;20185;-56
2022/06/20 06:08:11;;;;;;;8.00;3.35;;;22.60;99.90;;;;;;5052857;28;20169;-56
2022/06/20 06:10:47;;;;;;;8.52;3.05;;;22.70;99.90;;;;;;5052899;28;20238;-56
2022/06/20 06:13:42;;;;;;;10.73;3.10;;;22.90;99.90;;;;;;5052919;28;20247;-56
2022/06/20 06:19:13;;;;;;;9.90;3.20;;;23.70;99.90;;;;;;5052786;28;20275;-56
2022/06/20 06:21:40;;;;;;;9.23;3.45;;;24.40;99.20;;;;;;5052958;28;20173;-56
2022/06/20 06:24:07;;;;;;;9.95;3.30;;;24.80;98.00;;;;;;5052430;28;20185;-56
2022/06/20 06:26:35;;;;;;;10.48;3.00;;;24.90;97.20;;;;;;5052628;28;20211;-56
2022/06/20 06:29:03;;;;;;;10.60;4.57;;;25.10;97.10;;;;;;5052504;28;20186;-56
2022/06/20 06:31:36;;;;;;;8.25;3.20;;;25.10;96.60;;;;;;5052554;28;20177;-56
2022/06/20 06:34:20;;;;;;;8.95;3.00;;;25.30;96.30;;;;;;5052471;28;20216;-56
2022/06/20 06:37:03;;;;;;;13.70;5.38;;;25.50;96.30;;;;;;5052566;28;20166;-56
2022/06/20 06:39:40;;;;;;;9.52;3.30;;;25.80;95.40;;;;;;5052648;28;20184;-56
2022/06/20 06:42:12;;;;;;;7.32;2.97;;;25.90;94.80;;;;;;5052287;28;20284;-56
2022/06/20 06:44:44;;;;;;;8.10;3.90;;;26.10;94.90;;;;;;5052629;28;20184;-56
2022/06/20 06:47:31;;;;;;;7.63;2.80;;;26.90;93.90;;;;;;5052330;28;20178;-56
2022/06/20 06:50:03;;;;;;;7.28;3.10;;;28.00;92.10;;;;;;5052363;28;20193;-56
2022/06/20 06:52:43;;;;;;;8.02;2.80;;;29.40;90.30;;;;;;5051712;28;20607;-56
2022/06/20 06:55:33;;;;;;;11.73;3.35;;;30.80;84.20;;;;;;5051845;28;20247;-57
2022/06/20 06:58:11;;;;;;;8.35;2.97;;;31.80;76.30;;;;;;5052102;28;20705;-57
2022/06/20 07:00:44;;;;;;;7.40;2.40;;;32.40;72.10;;;;;;5052110;28;20599;-56
2022/06/20 07:03:25;;;;;;;9.43;2.83;;;32.80;69.90;;;;;;5052190;28;20174;-56
2022/06/20 07:05:59;;;;;;;6.20;2.45;;;32.60;67.70;;;;;;5052115;28;20667;-56
2022/06/20 07:08:29;;;;;;;8.57;2.65;;;32.50;67.40;;;;;;5052207;28;20173;-56
2022/06/20 07:11:06;;;;;;;6.35;2.90;;;32.50;65.70;;;;;;5052147;28;20207;-57
2022/06/20 07:13:36;;;;;;;8.82;2.50;;;32.70;65.90;;;;;;5052078;28;20211;-57
2022/06/20 07:16:05;;;;;;;5.55;2.33;;;33.10;63.80;;;;;;5052053;28;20192;-57
2022/06/20 07:18:47;;;;;;;8.80;2.60;;;33.40;62.10;;;;;;5052192;28;20640;-56
2022/06/20 07:21:15;;;;;;;8.82;2.75;;;33.90;60.90;;;;;;5052107;28;20197;-57
2022/06/20 07:23:43;;;;;;;10.77;3.22;;;34.10;59.60;;;;;;5052039;28;20176;-56
2022/06/20 07:26:13;;;;;;;4.90;2.20;;;34.10;58.00;;;;;;5052221;28;20596;-56
2022/06/20 07:28:57;;;;;;;10.82;3.92;;;34.20;57.90;;;;;;5052066;28;20267;-56
2022/06/20 07:31:34;;;;;;;6.32;2.08;;;34.40;57.90;;;;;;5052167;28;20208;-56
2022/06/20 07:34:06;;;;;;;7.10;2.17;;;34.40;57.50;;;;;;5051874;28;20303;-56
2022/06/20 07:36:49;;;;;;;7.75;2.40;;;34.30;57.10;;;;;;5051987;28;20173;-56
2022/06/20 07:39:22;;;;;;;8.20;2.78;;;34.10;57.20;;;;;;5051893;28;20181;-56
2022/06/20 07:41:54;;;;;;;6.60;2.60;;;33.70;56.80;;;;;;5051768;28;20636;-56
2022/06/20 07:44:29;;;;;;;5.97;2.40;;;33.30;57.50;;;;;;5051940;28;20181;-56
2022/06/20 07:47:04;;;;;;;8.23;2.63;;;33.30;58.00;;;;;;5051781;28;20199;-57
2022/06/20 07:49:37;;;;;;;9.50;2.70;;;33.60;58.00;;;;;;5051902;28;20188;-57
2022/06/20 07:52:12;;;;;;;8.20;2.70;;;33.60;57.40;;;;;;5051764;28;20223;-57
2022/06/20 07:54:44;;;;;;;13.13;3.10;;;33.00;57.50;;;;;;5051770;28;20247;-57
2022/06/20 07:57:17;;;;;;;11.57;3.15;;;33.20;58.30;;;;;;5052028;28;20173;-57
2022/06/20 07:59:51;;;;;;;6.20;2.38;;;33.80;57.90;;;;;;5051575;28;20284;-57
2022/06/20 08:02:43;;;;;;;7.25;2.53;;;34.50;56.80;;;;;;5051693;28;20211;-57
2022/06/20 08:05:16;;;;;;;10.50;2.83;;;34.90;55.20;;;;;;5053269;28;20192;-57
2022/06/20 08:08:07;;;;;;;7.30;2.40;;;35.00;54.70;;;;;;5055404;28;20184;-57
2022/06/20 08:10:42;;;;;;;9.13;3.15;;;35.40;54.30;;;;;;5055338;28;20279;-57
2022/06/20 08:13:24;;;;;;;7.45;2.85;;;35.60;53.80;;;;;;5055202;28;20212;-57
2022/06/20 08:15:57;;;;;;;6.00;2.72;;;35.30;53.10;;;;;;5055178;28;20223;-57
2022/06/20 08:18:24;;;;;;;8.65;3.13;;;34.60;54.10;;;;;;5055239;28;20265;-57
2022/06/20 08:20:58;;;;;;;7.32;2.83;;;34.50;55.10;;;;;;5054881;28;20590;-57
2022/06/20 08:23:50;;;;;;;7.20;2.50;;;34.70;54.00;;;;;;5055231;28;20260;-57
2022/06/20 08:26:23;;;;;;;7.00;2.88;;;35.30;54.20;;;;;;5055145;28;20177;-57
2022/06/20 08:28:56;;;;;;;7.95;2.40;;;35.80;53.70;;;;;;5054976;28;20258;-57
2022/06/20 08:31:31;;;;;;;8.40;2.83;;;35.50;53.00;;;;;;5055075;28;20201;-57
2022/06/20 08:34:22;;;;;;;8.30;2.80;;;35.10;53.20;;;;;;5054781;28;20223;-57
2022/06/20 08:36:59;;;;;;;6.82;2.58;;;34.50;54.00;;;;;;5054709;28;20179;-57
2022/06/20 08:39:43;;;;;;;6.55;3.15;;;33.90;54.50;;;;;;5054797;28;20179;-57
2022/06/20 08:42:18;;;;;;;10.10;2.83;;;33.80;56.10;;;;;;5054707;28;20234;-57
2022/06/20 08:45:08;;;;;;;7.72;2.97;;;33.90;55.40;;;;;;5054635;28;20262;-57
2022/06/20 08:48:19;;;;;;;7.85;3.72;;;34.20;56.10;;;;;;5054674;28;20515;-57
2022/06/20 08:51:22;;;;;;;11.55;3.65;;;34.10;54.60;;;;;;5043937;28;20205;-57
2022/06/20 08:53:48;;;;;;;13.52;3.00;;;33.50;55.10;;;;;;5054347;28;20216;-57
2022/06/20 08:56:44;;;;;;;11.32;3.60;;;33.10;55.80;;;;;;5054414;28;20256;-57
2022/06/20 08:59:38;;;;;;;5.03;3.03;;;32.50;56.50;;;;;;5054261;28;20663;-57
2022/06/20 09:02:26;;;;;;;7.07;3.38;;;31.90;56.90;;;;;;5054292;28;20210;-57
2022/06/20 09:05:13;;;;;;;9.85;3.47;;;30.90;58.20;;;;;;5054108;28;20660;-57
2022/06/20 09:07:51;;;;;;;9.43;3.10;;;30.10;60.00;;;;;;5054336;28;20177;-57
2022/06/20 09:10:51;;;;;;;7.85;3.40;;;29.70;62.80;;;;;;5054227;28;20179;-57
2022/06/20 09:13:33;;;;;;;7.20;2.90;;;29.90;61.80;;;;;;5054063;28;20296;-57
2022/06/20 09:16:34;;;;;;;6.63;3.30;;;29.80;62.90;;;;;;5053239;28;20755;-57
2022/06/20 09:19:12;;;;;;;7.97;3.30;;;29.70;64.50;;;;;;5053832;28;20225;-57
2022/06/20 09:22:02;;;;;;;6.40;3.35;;;30.10;64.40;;;;;;5053974;28;20173;-57
2022/06/20 09:24:38;;;;;;;11.65;3.92;;;30.50;63.20;;;;;;5053892;28;20849;-57
2022/06/20 09:27:18;;;;;;;4.80;3.50;;;30.40;62.30;;;;;;5053673;28;20192;-57
2022/06/20 09:29:57;;;;;;;8.65;3.55;;;30.40;62.70;;;;;;5053773;28;20607;-57
2022/06/20 09:32:28;;;;;;;10.07;3.80;;;30.00;62.90;;;;;;5053884;28;20170;-57
2022/06/20 09:35:16;;;;;;;5.60;3.10;;;29.80;64.60;;;;;;5053672;28;20213;-57
2022/06/20 09:37:54;;;;;;;8.80;3.83;;;29.60;64.90;;;;;;5053659;28;20180;-57
2022/06/20 09:40:31;;;;;;;6.55;3.55;;;29.60;65.20;;;;;;5053739;28;20182;-56
2022/06/20 09:43:08;;;;;;;11.65;3.58;;;29.20;65.70;;;;;;5053569;28;20177;-57
2022/06/20 09:45:44;;;;;;;6.22;3.22;;;28.80;66.70;;;;;;5053848;28;20574;-56
2022/06/20 09:48:37;;;;;;;7.35;3.30;;;28.70;67.10;;;;;;5053604;28;20235;-57
2022/06/20 09:51:26;;;;;;;9.00;3.65;;;28.70;67.30;;;;;;5053342;28;20702;-60
2022/06/20 09:54:05;;;;;;;7.00;3.67;;;28.80;68.00;;;;;;5053540;28;20272;-57
2022/06/20 09:56:48;;;;;;;10.77;3.80;;;28.80;68.10;;;;;;5053377;28;20182;-57
2022/06/20 09:59:14;;;;;;;7.00;3.70;;;29.10;67.60;;;;;;5053140;28;20181;-57
2022/06/20 10:02:21;;;;;;;13.20;4.07;;;28.90;67.10;;;;;;5053194;28;20231;-58
2022/06/20 10:05:21;;;;;;;8.43;3.80;;;28.60;67.30;;;;;;5044530;28;20243;-58
2022/06/20 10:07:56;;;;;;;7.97;3.42;;;28.40;68.30;;;;;;5053063;28;20543;-58
2022/06/20 10:10:47;;;;;;;9.98;3.40;;;28.20;69.60;;;;;;5053124;28;20268;-58
2022/06/20 10:13:28;;;;;;;10.13;4.25;;;28.00;70.30;;;;;;5052883;28;20660;-58
2022/06/20 10:16:27;;;;;;;8.35;4.10;;;28.10;70.70;;;;;;5052899;28;20200;-58
2022/06/20 10:19:01;;;;;;;8.40;3.47;;;28.10;71.10;;;;;;5052704;28;20228;-58
2022/06/20 10:22:00;;;;;;;8.38;3.60;;;28.30;71.00;;;;;;5052779;28;20196;-58
2022/06/20 10:24:47;;;;;;;8.18;3.42;;;28.60;70.70;;;;;;5052825;28;20219;-58
2022/06/20 10:27:43;;;;;;;7.22;3.30;;;29.00;68.80;;;;;;5052535;28;20533;-58
2022/06/20 10:30:12;;;;;;;8.90;3.15;;;28.80;68.60;;;;;;5052653;28;20628;-58
2022/06/20 10:33:10;;;;;;;7.80;3.40;;;28.80;68.60;;;;;;5052459;28;20177;-58
2022/06/20 10:35:44;;;;;;;10.68;3.35;;;29.00;68.60;;;;;;5052668;28;20184;-58
2022/06/20 10:38:42;;;;;;;10.52;3.30;;;28.90;68.10;;;;;;5052577;28;20169;-58
2022/06/20 10:41:26;;;;;;;6.93;3.30;;;29.00;68.40;;;;;;5052396;28;20227;-57
2022/06/20 10:44:25;;;;;;;7.85;3.25;;;29.10;68.60;;;;;;5052470;28;20173;-58
2022/06/20 10:47:12;;;;;;;10.23;4.07;;;29.10;68.50;;;;;;5052527;28;20227;-58
2022/06/20 10:50:19;;;;;;;8.63;3.38;;;29.30;67.40;;;;;;5052424;28;20187;-58
2022/06/20 10:53:13;;;;;;;6.72;2.80;;;29.30;67.00;;;;;;5052270;28;20234;-58
2022/06/20 10:55:56;;;;;;;8.25;2.80;;;29.00;66.40;;;;;;5052267;28;20219;-58
2022/06/20 10:58:39;;;;;;;18.33;3.45;;;28.80;66.20;;;;;;5052400;28;20235;-58
2022/06/20 11:01:17;;;;;;;11.60;3.30;;;28.60;67.20;;;;;;5052153;28;20260;-58
2022/06/20 11:04:17;;;;;;;14.93;3.50;;;28.40;67.30;;;;;;5052489;28;20204;-58
2022/06/20 11:07:16;;;;;;;10.20;3.70;;;28.30;67.70;;;;;;5052304;28;20261;-58
2022/06/20 11:10:02;;;;;;;7.03;2.75;;;28.30;68.80;;;;;;5052302;28;20223;-57
2022/06/20 11:13:00;;;;;;;7.38;3.13;;;28.50;68.80;;;;;;5052072;28;20177;-58
2022/06/20 11:15:48;;;;;;;8.27;3.03;;;28.40;69.20;;;;;;5052032;28;20193;-58
2022/06/20 11:18:46;;;;;;;9.65;3.85;;;28.10;69.80;;;;;;5052057;28;20710;-58
2022/06/20 11:21:43;;;;;;;13.02;3.90;;;28.00;70.40;;;;;;5052233;28;20194;-57
2022/06/20 11:24:27;;;;;;;11.00;4.38;;;28.00;70.50;;;;;;5052012;28;20180;-58
2022/06/20 11:27:18;;;;;;;8.35;3.53;;;28.10;70.20;;;;;;5052034;28;20227;-57
2022/06/20 11:29:51;;;;;;;6.28;3.28;;;27.90;70.60;;;;;;5048688;28;20185;-58
2022/06/20 11:32:25;;;;;;;10.93;3.53;;;27.50;71.80;;;;;;5051959;28;20637;-58
2022/06/20 11:35:24;;;;;;;9.90;3.50;;;27.20;72.50;;;;;;5050548;28;20568;-57
2022/06/20 11:38:01;;;;;;;9.23;3.10;;;26.90;74.10;;;;;;5051953;28;20260;-58
2022/06/20 11:40:34;;;;;;;7.47;3.20;;;26.70;75.30;;;;;;5052837;28;20208;-57
2022/06/20 11:43:24;;;;;;;6.20;3.38;;;26.70;76.10;;;;;;5055873;28;20207;-57
2022/06/20 11:46:33;;;;;;;7.03;3.17;;;26.60;76.80;;;;;;5055742;28;20193;-57
2022/06/20 11:49:16;;;;;;;7.70;3.13;;;26.30;77.70;;;;;;5049925;28;20185;-57
2022/06/20 11:52:01;;;;;;;5.18;3.03;;;26.30;78.40;;;;;;5056028;28;20204;-57
2022/06/20 11:54:50;;;;;;;8.77;3.45;;;26.20;78.80;;;;;;5055554;28;20226;-57
2022/06/20 11:57:34;;;;;;;7.93;3.13;;;26.20;78.70;;;;;;5055723;28;20178;-57
2022/06/20 12:00:05;;;;;;;9.38;3.25;;;26.10;78.80;;;;;;5055493;28;20260;-58
2022/06/20 12:02:52;;;;;;;8.50;3.13;;;26.00;79.40;;;;;;5055466;28;20176;-57
2022/06/20 12:05:18;;;;;;;7.28;2.80;;;26.00;80.10;;;;;;5055507;28;20180;-58
2022/06/20 12:08:15;;;;;;;4.10;2.63;;;26.00;80.50;;;;;;5055248;28;20288;-58
2022/06/20 12:10:56;;;;;;;5.90;2.65;;;25.90;81.10;;;;;;5055286;28;20683;-57
2022/06/20 12:13:56;;;;;;;7.88;2.42;;;25.80;81.70;;;;;;5055146;28;20228;-58
2022/06/20 12:16:53;;;;;;;3.58;2.22;;;25.90;82.50;;;;;;5055262;28;20211;-58
2022/06/20 12:25:26;;;;;;;4.60;2.40;;;25.70;82.30;;;;;;5055628;28;20272;-57
2022/06/20 12:27:52;;;;;;;5.65;2.42;;;25.30;83.30;;;;;;5055039;28;20179;-57
2022/06/20 12:30:18;;;;;;;7.53;2.30;;;25.10;84.60;;;;;;5055007;28;20173;-58
2022/06/20 12:32:50;;;;;;;4.20;2.55;;;24.80;85.40;;;;;;5054839;28;20169;-57
2022/06/20 12:35:28;;;;;;;2.67;2.10;;;24.70;86.30;;;;;;5055039;28;20544;-57
2022/06/20 12:38:10;;;;;;;3.53;2.03;;;24.70;86.00;;;;;;5054907;28;20176;-57
2022/06/20 12:40:43;;;;;;;4.95;2.08;;;24.80;85.90;;;;;;5054846;28;20181;-57
2022/06/20 12:43:17;;;;;;;7.45;2.10;;;24.90;86.30;;;;;;5054728;28;20181;-58
2022/06/20 12:46:09;;;;;;;4.38;2.40;;;25.10;85.90;;;;;;5054721;28;20173;-57
2022/06/20 12:48:49;;;;;;;3.80;1.77;;;25.10;84.70;;;;;;5054614;28;20518;-57
2022/06/20 12:51:47;;;;;;;2.05;1.90;;;25.20;84.20;;;;;;5054645;28;20177;-58
2022/06/20 12:54:19;;;;;;;2.65;1.70;;;25.30;84.60;;;;;;5054537;28;20676;-57
2022/06/20 12:56:44;;;;;;;2.83;2.00;;;25.60;84.00;;;;;;5054354;28;20189;-58
2022/06/20 12:59:35;;;;;;;2.63;1.95;;;25.80;83.10;;;;;;5054407;28;20193;-57
2022/06/20 13:02:10;;;;;;;5.40;1.80;;;26.00;82.80;;;;;;5054350;28;20222;-58
2022/06/20 13:05:14;;;;;;;3.97;1.98;;;26.30;82.50;;;;;;5054382;28;20235;-57
2022/06/20 13:08:07;;;;;;;3.42;2.05;;;26.40;81.60;;;;;;5054395;28;20187;-57
2022/06/20 13:10:38;;;;;;;2.72;1.90;;;26.50;81.00;;;;;;5054315;28;20227;-57
2022/06/20 13:13:22;;;;;;;2.13;2.03;;;26.60;80.60;;;;;;5053907;28;20626;-57
2022/06/20 13:15:52;;;;;;;3.83;2.13;;;26.70;80.50;;;;;;5053979;28;20632;-57
2022/06/20 13:18:30;;;;;;;3.53;2.20;;;26.80;79.90;;;;;;5054023;28;20699;-58
2022/06/20 13:21:18;;;;;;;2.08;1.88;;;26.90;79.60;;;;;;5053794;28;20228;-57
2022/06/20 13:24:18;;;;;;;2.60;1.75;;;26.90;79.80;;;;;;5053820;28;20264;-58
2022/06/20 13:27:09;;;;;;;3.97;1.50;;;27.00;79.10;;;;;;5053863;28;20235;-58
2022/06/20 13:29:54;;;;;;;1.88;1.77;;;27.20;78.70;;;;;;5053961;28;20212;-58
2022/06/20 13:32:38;;;;;;;2.33;1.80;;;27.30;77.70;;;;;;5053830;28;20188;-58
2022/06/20 13:35:22;;;;;;;2.97;1.60;;;27.30;77.10;;;;;;5053599;28;20216;-57
2022/06/20 13:37:56;;;;;;;2.83;1.77;;;27.20;77.60;;;;;;5053719;28;20265;-58
2022/06/20 13:40:59;;;;;;;2.78;1.98;;;27.10;76.90;;;;;;5053738;28;20226;-58
2022/06/20 13:43:55;;;;;;;2.28;2.00;;;26.90;77.00;;;;;;5053547;28;20173;-57
2022/06/20 13:46:26;;;;;;;3.58;2.00;;;26.50;77.40;;;;;;5053564;28;20178;-57
2022/06/20 13:49:14;;;;;;;6.93;1.70;;;26.30;78.40;;;;;;5053493;28;20322;-58
2022/06/20 13:51:46;;;;;;;2.95;1.80;;;26.20;79.30;;;;;;5053441;28;20185;-58
2022/06/20 13:54:52;;;;;;;2.47;2.00;;;26.20;79.30;;;;;;5053422;28;20212;-58